Austinville, Virginia
Current Conditions -  °F | °C
As of 8:15 AM on Wednesday 22 Oct 2014 (Local Time) from KHLX Reporting Station
Overcast Overcast  
Wind Chill:   Ceiling: 2400
Heat Index:   Visibility: 10mi
Dew Point:   Wind: 13mph
Humidity: 79%   Direction: 320°NW
Pressure: 30.06"   Gusts: 17mph
Location:  36.85°N, 80.91°W
Report Text: KHLX 221215Z AUTO 32011G15KT 10SM OVC024 05/02 A3006 RMK AO2 T00520018
Loading
Personal Weather Stations






























Interactive Weather Map New forecast layout! Learn more

10-Day Weather Forecast

Advertisements
Track Severe Weather on mobile